Terminal Aerodrome Forecast
Issued by NWS Caribou, ME

Home | Current Version | Previous Version | Text Only | Print | Product List | Glossary On
Versions: 1 2 3 4 5 6 7 8 9 10 11 12 13 14 15 16 17 18 19 20 21 22
117
FTUS41 KCAR 070817 AAA
TAFCAR
TAF AMD
KCAR 070817Z 0708/0806 VRB03KT P6SM OVC004
      TEMPO 0709/0711 3SM BR
     FM071300 VRB03KT P6SM VCSH OVC020=

USA.gov is the U.S. government's official web portal to all federal, state and local government web resources and services.